sensor_id;sensor_type;location;lat;lon;timestamp;P1;durP1;ratioP1;P2;durP2;ratioP2
32319;SDS011;19080;51.750;5.888;2023-03-15T00:00:28;2.55;;;1.70;;
32319;SDS011;19080;51.750;5.888;2023-03-15T00:02:54;4.07;;;1.80;;
32319;SDS011;19080;51.750;5.888;2023-03-15T00:05:21;4.25;;;1.77;;
32319;SDS011;19080;51.750;5.888;2023-03-15T00:07:48;4.57;;;2.00;;
32319;SDS011;19080;51.750;5.888;2023-03-15T00:10:15;5.50;;;2.60;;
32319;SDS011;19080;51.750;5.888;2023-03-15T00:12:41;3.83;;;1.88;;
32319;SDS011;19080;51.750;5.888;2023-03-15T00:15:08;5.45;;;1.80;;
32319;SDS011;19080;51.750;5.888;2023-03-15T00:17:38;3.17;;;1.40;;
32319;SDS011;19080;51.750;5.888;2023-03-15T00:20:05;1.95;;;1.20;;
32319;SDS011;19080;51.750;5.888;2023-03-15T00:22:33;2.08;;;1.13;;
32319;SDS011;19080;51.750;5.888;2023-03-15T00:24:59;3.28;;;1.40;;
32319;SDS011;19080;51.750;5.888;2023-03-15T00:27:26;2.83;;;0.88;;
32319;SDS011;19080;51.750;5.888;2023-03-15T00:29:53;1.65;;;1.00;;
32319;SDS011;19080;51.750;5.888;2023-03-15T00:32:19;2.42;;;0.80;;
32319;SDS011;19080;51.750;5.888;2023-03-15T00:34:46;1.58;;;0.73;;
32319;SDS011;19080;51.750;5.888;2023-03-15T00:37:15;1.80;;;0.80;;
32319;SDS011;19080;51.750;5.888;2023-03-15T00:39:42;2.50;;;0.70;;
32319;SDS011;19080;51.750;5.888;2023-03-15T00:42:11;1.25;;;0.85;;
32319;SDS011;19080;51.750;5.888;2023-03-15T00:44:42;2.05;;;0.70;;
32319;SDS011;19080;51.750;5.888;2023-03-15T00:47:09;2.30;;;1.00;;
32319;SDS011;19080;51.750;5.888;2023-03-15T00:49:38;2.47;;;1.25;;
32319;SDS011;19080;51.750;5.888;2023-03-15T00:52:06;1.90;;;0.82;;
32319;SDS011;19080;51.750;5.888;2023-03-15T00:54:33;2.33;;;1.42;;
32319;SDS011;19080;51.750;5.888;2023-03-15T00:56:59;1.00;;;0.85;;
32319;SDS011;19080;51.750;5.888;2023-03-15T00:59:27;3.22;;;1.10;;
32319;SDS011;19080;51.750;5.888;2023-03-15T01:01:55;0.85;;;0.82;;
32319;SDS011;19080;51.750;5.888;2023-03-15T01:04:21;1.33;;;0.80;;
32319;SDS011;19080;51.750;5.888;2023-03-15T01:06:49;2.75;;;1.27;;
32319;SDS011;19080;51.750;5.888;2023-03-15T01:09:16;4.80;;;2.33;;
32319;SDS011;19080;51.750;5.888;2023-03-15T01:11:43;5.82;;;2.80;;
32319;SDS011;19080;51.750;5.888;2023-03-15T01:14:10;5.65;;;1.98;;
32319;SDS011;19080;51.750;5.888;2023-03-15T01:16:37;8.02;;;4.43;;
32319;SDS011;19080;51.750;5.888;2023-03-15T01:19:03;6.32;;;4.32;;
32319;SDS011;19080;51.750;5.888;2023-03-15T01:21:30;6.50;;;3.47;;
32319;SDS011;19080;51.750;5.888;2023-03-15T01:23:57;5.00;;;2.10;;
32319;SDS011;19080;51.750;5.888;2023-03-15T01:26:24;2.45;;;1.42;;
32319;SDS011;19080;51.750;5.888;2023-03-15T01:28:51;6.95;;;2.70;;
32319;SDS011;19080;51.750;5.888;2023-03-15T01:31:23;6.63;;;3.30;;
32319;SDS011;19080;51.750;5.888;2023-03-15T01:33:55;2.85;;;1.25;;
32319;SDS011;19080;51.750;5.888;2023-03-15T01:36:23;5.00;;;2.70;;
32319;SDS011;19080;51.750;5.888;2023-03-15T01:38:50;13.38;;;7.40;;
32319;SDS011;19080;51.750;5.888;2023-03-15T01:41:22;9.05;;;4.70;;
32319;SDS011;19080;51.750;5.888;2023-03-15T01:43:51;2.55;;;1.45;;
32319;SDS011;19080;51.750;5.888;2023-03-15T01:46:22;5.38;;;2.38;;
32319;SDS011;19080;51.750;5.888;2023-03-15T01:49:28;2.85;;;1.55;;
32319;SDS011;19080;51.750;5.888;2023-03-15T01:52:02;3.40;;;2.30;;
32319;SDS011;19080;51.750;5.888;2023-03-15T01:54:45;6.47;;;2.22;;
32319;SDS011;19080;51.750;5.888;2023-03-15T01:57:28;3.55;;;2.03;;
32319;SDS011;19080;51.750;5.888;2023-03-15T02:00:05;2.95;;;2.00;;
32319;SDS011;19080;51.750;5.888;2023-03-15T02:02:50;4.18;;;2.08;;
32319;SDS011;19080;51.750;5.888;2023-03-15T02:05:25;2.88;;;1.83;;
32319;SDS011;19080;51.750;5.888;2023-03-15T02:07:55;4.80;;;2.30;;
32319;SDS011;19080;51.750;5.888;2023-03-15T02:10:26;2.58;;;1.23;;
32319;SDS011;19080;51.750;5.888;2023-03-15T02:12:58;1.98;;;1.33;;
32319;SDS011;19080;51.750;5.888;2023-03-15T02:15:26;2.30;;;1.10;;
32319;SDS011;19080;51.750;5.888;2023-03-15T02:17:53;5.03;;;2.00;;
32319;SDS011;19080;51.750;5.888;2023-03-15T02:20:22;6.88;;;1.75;;
32319;SDS011;19080;51.750;5.888;2023-03-15T02:25:25;1.33;;;1.02;;
32319;SDS011;19080;51.750;5.888;2023-03-15T02:27:57;1.30;;;1.20;;
32319;SDS011;19080;51.750;5.888;2023-03-15T02:30:24;3.13;;;1.50;;
32319;SDS011;19080;51.750;5.888;2023-03-15T02:32:51;3.35;;;1.52;;
32319;SDS011;19080;51.750;5.888;2023-03-15T02:35:24;5.50;;;2.38;;
32319;SDS011;19080;51.750;5.888;2023-03-15T02:37:52;3.00;;;1.70;;
32319;SDS011;19080;51.750;5.888;2023-03-15T02:40:19;5.90;;;2.88;;
32319;SDS011;19080;51.750;5.888;2023-03-15T02:42:49;3.75;;;1.98;;
32319;SDS011;19080;51.750;5.888;2023-03-15T02:45:19;3.63;;;2.37;;
32319;SDS011;19080;51.750;5.888;2023-03-15T02:47:48;3.05;;;1.90;;
32319;SDS011;19080;51.750;5.888;2023-03-15T02:50:16;1.55;;;1.38;;
32319;SDS011;19080;51.750;5.888;2023-03-15T02:52:42;1.55;;;1.30;;
32319;SDS011;19080;51.750;5.888;2023-03-15T02:55:09;3.10;;;1.52;;
32319;SDS011;19080;51.750;5.888;2023-03-15T02:57:36;1.95;;;1.75;;
32319;SDS011;19080;51.750;5.888;2023-03-15T03:00:04;2.25;;;1.42;;
32319;SDS011;19080;51.750;5.888;2023-03-15T03:02:43;1.85;;;1.35;;
32319;SDS011;19080;51.750;5.888;2023-03-15T03:05:12;2.42;;;1.83;;
32319;SDS011;19080;51.750;5.888;2023-03-15T03:07:40;1.30;;;1.20;;
32319;SDS011;19080;51.750;5.888;2023-03-15T03:10:12;2.72;;;1.80;;
32319;SDS011;19080;51.750;5.888;2023-03-15T03:12:50;1.85;;;1.63;;
32319;SDS011;19080;51.750;5.888;2023-03-15T03:15:24;1.42;;;1.17;;
32319;SDS011;19080;51.750;5.888;2023-03-15T03:17:51;1.50;;;1.40;;
32319;SDS011;19080;51.750;5.888;2023-03-15T03:20:21;1.25;;;1.15;;
32319;SDS011;19080;51.750;5.888;2023-03-15T03:22:48;1.00;;;0.95;;
32319;SDS011;19080;51.750;5.888;2023-03-15T03:25:16;0.80;;;0.80;;
32319;SDS011;19080;51.750;5.888;2023-03-15T03:27:45;1.63;;;1.30;;
32319;SDS011;19080;51.750;5.888;2023-03-15T03:30:12;1.48;;;1.38;;
32319;SDS011;19080;51.750;5.888;2023-03-15T03:32:44;2.30;;;1.50;;
32319;SDS011;19080;51.750;5.888;2023-03-15T03:35:11;3.28;;;1.63;;
32319;SDS011;19080;51.750;5.888;2023-03-15T03:37:41;1.23;;;1.13;;
32319;SDS011;19080;51.750;5.888;2023-03-15T03:40:13;1.52;;;1.40;;
32319;SDS011;19080;51.750;5.888;2023-03-15T03:42:40;2.40;;;1.65;;
32319;SDS011;19080;51.750;5.888;2023-03-15T03:45:07;2.92;;;2.35;;
32319;SDS011;19080;51.750;5.888;2023-03-15T03:47:39;3.55;;;2.05;;
32319;SDS011;19080;51.750;5.888;2023-03-15T03:50:06;1.85;;;1.70;;
32319;SDS011;19080;51.750;5.888;2023-03-15T03:52:34;3.20;;;1.80;;
32319;SDS011;19080;51.750;5.888;2023-03-15T03:55:05;1.95;;;1.85;;
32319;SDS011;19080;51.750;5.888;2023-03-15T03:57:32;3.40;;;2.63;;
32319;SDS011;19080;51.750;5.888;2023-03-15T03:59:59;3.70;;;2.80;;
32319;SDS011;19080;51.750;5.888;2023-03-15T04:02:29;4.55;;;3.00;;
32319;SDS011;19080;51.750;5.888;2023-03-15T04:04:59;5.60;;;2.88;;
32319;SDS011;19080;51.750;5.888;2023-03-15T04:07:26;4.80;;;3.30;;
32319;SDS011;19080;51.750;5.888;2023-03-15T04:09:53;4.55;;;3.40;;
32319;SDS011;19080;51.750;5.888;2023-03-15T04:12:20;7.03;;;4.20;;
32319;SDS011;19080;51.750;5.888;2023-03-15T04:14:47;5.05;;;4.30;;
32319;SDS011;19080;51.750;5.888;2023-03-15T04:17:16;5.55;;;4.15;;
32319;SDS011;19080;51.750;5.888;2023-03-15T04:19:43;3.85;;;3.50;;
32319;SDS011;19080;51.750;5.888;2023-03-15T04:22:13;6.90;;;4.20;;
32319;SDS011;19080;51.750;5.888;2023-03-15T04:25:12;4.65;;;3.30;;
32319;SDS011;19080;51.750;5.888;2023-03-15T04:27:46;3.67;;;3.15;;
32319;SDS011;19080;51.750;5.888;2023-03-15T04:30:44;6.65;;;4.32;;
32319;SDS011;19080;51.750;5.888;2023-03-15T04:33:39;5.03;;;3.78;;
32319;SDS011;19080;51.750;5.888;2023-03-15T04:36:05;4.22;;;3.70;;
32319;SDS011;19080;51.750;5.888;2023-03-15T04:38:51;5.22;;;4.35;;
32319;SDS011;19080;51.750;5.888;2023-03-15T04:41:38;5.85;;;4.32;;
32319;SDS011;19080;51.750;5.888;2023-03-15T04:44:12;5.85;;;4.65;;
32319;SDS011;19080;51.750;5.888;2023-03-15T04:47:00;5.63;;;4.20;;
32319;SDS011;19080;51.750;5.888;2023-03-15T04:49:40;6.72;;;5.40;;
32319;SDS011;19080;51.750;5.888;2023-03-15T04:52:17;6.70;;;5.72;;
32319;SDS011;19080;51.750;5.888;2023-03-15T04:54:57;7.47;;;5.63;;
32319;SDS011;19080;51.750;5.888;2023-03-15T04:57:46;7.40;;;5.45;;
32319;SDS011;19080;51.750;5.888;2023-03-15T05:00:33;10.65;;;6.47;;
32319;SDS011;19080;51.750;5.888;2023-03-15T05:03:13;12.93;;;8.15;;
32319;SDS011;19080;51.750;5.888;2023-03-15T05:06:12;8.20;;;6.82;;
32319;SDS011;19080;51.750;5.888;2023-03-15T05:09:04;7.70;;;6.50;;
32319;SDS011;19080;51.750;5.888;2023-03-15T05:12:00;9.60;;;6.90;;
32319;SDS011;19080;51.750;5.888;2023-03-15T05:14:54;7.03;;;5.80;;
32319;SDS011;19080;51.750;5.888;2023-03-15T05:17:33;7.78;;;6.70;;
32319;SDS011;19080;51.750;5.888;2023-03-15T05:20:31;10.85;;;7.07;;
32319;SDS011;19080;51.750;5.888;2023-03-15T05:23:21;11.55;;;7.95;;
32319;SDS011;19080;51.750;5.888;2023-03-15T05:26:04;12.43;;;8.35;;
32319;SDS011;19080;51.750;5.888;2023-03-15T05:28:50;10.45;;;7.22;;
32319;SDS011;19080;51.750;5.888;2023-03-15T05:31:30;8.00;;;6.88;;
32319;SDS011;19080;51.750;5.888;2023-03-15T05:34:20;8.43;;;6.32;;
32319;SDS011;19080;51.750;5.888;2023-03-15T05:37:08;8.27;;;5.93;;
32319;SDS011;19080;51.750;5.888;2023-03-15T05:40:14;9.15;;;5.90;;
32319;SDS011;19080;51.750;5.888;2023-03-15T05:42:47;8.10;;;6.00;;
32319;SDS011;19080;51.750;5.888;2023-03-15T05:45:17;10.63;;;6.63;;
32319;SDS011;19080;51.750;5.888;2023-03-15T05:48:02;7.00;;;6.30;;
32319;SDS011;19080;51.750;5.888;2023-03-15T05:50:55;9.00;;;6.38;;
32319;SDS011;19080;51.750;5.888;2023-03-15T05:53:42;8.32;;;5.32;;
32319;SDS011;19080;51.750;5.888;2023-03-15T05:56:43;9.35;;;6.22;;
32319;SDS011;19080;51.750;5.888;2023-03-15T05:59:30;8.43;;;6.43;;
32319;SDS011;19080;51.750;5.888;2023-03-15T06:02:17;9.18;;;6.13;;
32319;SDS011;19080;51.750;5.888;2023-03-15T06:04:56;7.32;;;5.68;;
32319;SDS011;19080;51.750;5.888;2023-03-15T06:07:25;7.35;;;5.53;;
32319;SDS011;19080;51.750;5.888;2023-03-15T06:09:53;7.45;;;5.88;;
32319;SDS011;19080;51.750;5.888;2023-03-15T06:12:20;7.47;;;6.00;;
32319;SDS011;19080;51.750;5.888;2023-03-15T06:14:47;11.50;;;6.65;;
32319;SDS011;19080;51.750;5.888;2023-03-15T06:17:14;8.80;;;6.53;;
32319;SDS011;19080;51.750;5.888;2023-03-15T06:19:42;8.68;;;6.70;;
32319;SDS011;19080;51.750;5.888;2023-03-15T06:22:09;10.70;;;6.72;;
32319;SDS011;19080;51.750;5.888;2023-03-15T06:24:44;8.75;;;7.15;;
32319;SDS011;19080;51.750;5.888;2023-03-15T06:27:11;9.48;;;6.93;;
32319;SDS011;19080;51.750;5.888;2023-03-15T06:29:37;10.63;;;7.78;;
32319;SDS011;19080;51.750;5.888;2023-03-15T06:32:05;9.20;;;6.72;;
32319;SDS011;19080;51.750;5.888;2023-03-15T06:34:36;12.13;;;8.02;;
32319;SDS011;19080;51.750;5.888;2023-03-15T06:37:03;9.18;;;6.95;;
32319;SDS011;19080;51.750;5.888;2023-03-15T06:39:30;9.10;;;6.90;;
32319;SDS011;19080;51.750;5.888;2023-03-15T06:41:59;11.43;;;7.82;;
32319;SDS011;19080;51.750;5.888;2023-03-15T06:44:29;9.77;;;7.65;;
32319;SDS011;19080;51.750;5.888;2023-03-15T06:47:00;10.57;;;7.88;;
32319;SDS011;19080;51.750;5.888;2023-03-15T06:49:27;8.63;;;7.30;;
32319;SDS011;19080;51.750;5.888;2023-03-15T06:51:55;9.25;;;6.85;;
32319;SDS011;19080;51.750;5.888;2023-03-15T06:54:22;12.07;;;8.68;;
32319;SDS011;19080;51.750;5.888;2023-03-15T06:56:49;12.38;;;8.57;;
32319;SDS011;19080;51.750;5.888;2023-03-15T06:59:16;12.30;;;8.98;;
32319;SDS011;19080;51.750;5.888;2023-03-15T07:01:43;14.10;;;9.52;;
32319;SDS011;19080;51.750;5.888;2023-03-15T07:04:09;14.00;;;10.23;;
32319;SDS011;19080;51.750;5.888;2023-03-15T07:06:36;13.57;;;9.48;;
32319;SDS011;19080;51.750;5.888;2023-03-15T07:09:03;12.35;;;9.40;;
32319;SDS011;19080;51.750;5.888;2023-03-15T07:11:30;16.73;;;11.45;;
32319;SDS011;19080;51.750;5.888;2023-03-15T07:13:57;17.70;;;12.45;;
32319;SDS011;19080;51.750;5.888;2023-03-15T07:16:24;15.32;;;11.77;;
32319;SDS011;19080;51.750;5.888;2023-03-15T07:18:51;14.18;;;10.45;;
32319;SDS011;19080;51.750;5.888;2023-03-15T07:21:20;12.35;;;10.30;;
32319;SDS011;19080;51.750;5.888;2023-03-15T07:23:47;12.73;;;10.88;;
32319;SDS011;19080;51.750;5.888;2023-03-15T07:26:14;14.13;;;10.93;;
32319;SDS011;19080;51.750;5.888;2023-03-15T07:28:40;12.05;;;9.55;;
32319;SDS011;19080;51.750;5.888;2023-03-15T07:31:10;11.52;;;9.80;;
32319;SDS011;19080;51.750;5.888;2023-03-15T07:33:37;12.43;;;9.48;;
32319;SDS011;19080;51.750;5.888;2023-03-15T07:36:04;14.00;;;8.90;;
32319;SDS011;19080;51.750;5.888;2023-03-15T07:38:33;12.07;;;8.48;;
32319;SDS011;19080;51.750;5.888;2023-03-15T07:41:00;10.70;;;8.00;;
32319;SDS011;19080;51.750;5.888;2023-03-15T07:43:28;12.10;;;8.02;;
32319;SDS011;19080;51.750;5.888;2023-03-15T07:46:08;11.63;;;6.90;;
32319;SDS011;19080;51.750;5.888;2023-03-15T07:48:35;12.02;;;7.88;;
32319;SDS011;19080;51.750;5.888;2023-03-15T07:51:03;12.25;;;8.48;;
32319;SDS011;19080;51.750;5.888;2023-03-15T07:53:29;8.68;;;6.07;;
32319;SDS011;19080;51.750;5.888;2023-03-15T07:55:56;10.40;;;7.47;;
32319;SDS011;19080;51.750;5.888;2023-03-15T07:58:22;12.35;;;7.43;;
32319;SDS011;19080;51.750;5.888;2023-03-15T08:00:49;7.85;;;5.80;;
32319;SDS011;19080;51.750;5.888;2023-03-15T08:03:15;6.90;;;5.25;;
32319;SDS011;19080;51.750;5.888;2023-03-15T08:05:42;9.30;;;5.95;;
32319;SDS011;19080;51.750;5.888;2023-03-15T08:08:09;9.15;;;5.60;;
32319;SDS011;19080;51.750;5.888;2023-03-15T08:10:35;8.45;;;5.75;;
32319;SDS011;19080;51.750;5.888;2023-03-15T08:13:02;9.10;;;5.10;;
32319;SDS011;19080;51.750;5.888;2023-03-15T08:15:29;8.25;;;5.45;;
32319;SDS011;19080;51.750;5.888;2023-03-15T08:17:55;9.65;;;4.90;;
32319;SDS011;19080;51.750;5.888;2023-03-15T08:20:22;10.43;;;4.93;;
32319;SDS011;19080;51.750;5.888;2023-03-15T08:22:48;10.00;;;5.68;;
32319;SDS011;19080;51.750;5.888;2023-03-15T08:25:18;7.70;;;4.97;;
32319;SDS011;19080;51.750;5.888;2023-03-15T08:27:46;10.88;;;5.57;;
32319;SDS011;19080;51.750;5.888;2023-03-15T08:30:13;9.32;;;4.68;;
32319;SDS011;19080;51.750;5.888;2023-03-15T08:32:42;6.22;;;4.13;;
32319;SDS011;19080;51.750;5.888;2023-03-15T08:35:11;9.20;;;4.88;;
32319;SDS011;19080;51.750;5.888;2023-03-15T08:37:41;6.75;;;4.22;;
32319;SDS011;19080;51.750;5.888;2023-03-15T08:40:13;8.07;;;4.53;;
32319;SDS011;19080;51.750;5.888;2023-03-15T08:42:49;7.72;;;4.75;;
32319;SDS011;19080;51.750;5.888;2023-03-15T08:45:16;4.82;;;4.00;;
32319;SDS011;19080;51.750;5.888;2023-03-15T08:47:43;7.75;;;4.45;;
32319;SDS011;19080;51.750;5.888;2023-03-15T08:50:13;5.68;;;4.18;;
32319;SDS011;19080;51.750;5.888;2023-03-15T08:52:40;8.23;;;4.22;;
32319;SDS011;19080;51.750;5.888;2023-03-15T08:55:08;9.48;;;4.97;;
32319;SDS011;19080;51.750;5.888;2023-03-15T08:57:36;11.10;;;3.78;;
32319;SDS011;19080;51.750;5.888;2023-03-15T09:00:03;7.93;;;4.30;;
32319;SDS011;19080;51.750;5.888;2023-03-15T09:02:34;7.75;;;3.83;;
32319;SDS011;19080;51.750;5.888;2023-03-15T09:05:03;7.05;;;3.45;;
32319;SDS011;19080;51.750;5.888;2023-03-15T09:07:32;5.85;;;3.63;;
32319;SDS011;19080;51.750;5.888;2023-03-15T09:09:59;9.82;;;3.67;;
32319;SDS011;19080;51.750;5.888;2023-03-15T09:12:26;10.15;;;3.60;;
32319;SDS011;19080;51.750;5.888;2023-03-15T09:14:53;8.40;;;3.60;;
32319;SDS011;19080;51.750;5.888;2023-03-15T09:17:20;7.57;;;3.80;;
32319;SDS011;19080;51.750;5.888;2023-03-15T09:19:46;7.30;;;3.22;;
32319;SDS011;19080;51.750;5.888;2023-03-15T09:22:13;7.13;;;3.25;;
32319;SDS011;19080;51.750;5.888;2023-03-15T09:24:59;9.73;;;3.58;;
32319;SDS011;19080;51.750;5.888;2023-03-15T09:27:28;8.18;;;3.90;;
32319;SDS011;19080;51.750;5.888;2023-03-15T09:29:58;7.43;;;3.35;;
32319;SDS011;19080;51.750;5.888;2023-03-15T09:32:25;7.13;;;2.78;;
32319;SDS011;19080;51.750;5.888;2023-03-15T09:34:52;5.90;;;3.20;;
32319;SDS011;19080;51.750;5.888;2023-03-15T09:37:18;8.07;;;3.97;;
32319;SDS011;19080;51.750;5.888;2023-03-15T09:39:47;10.57;;;3.35;;
32319;SDS011;19080;51.750;5.888;2023-03-15T09:42:34;5.97;;;3.95;;
32319;SDS011;19080;51.750;5.888;2023-03-15T09:48:23;6.20;;;2.75;;
32319;SDS011;19080;51.750;5.888;2023-03-15T09:56:26;7.63;;;2.35;;
32319;SDS011;19080;51.750;5.888;2023-03-15T09:58:58;9.13;;;2.45;;
32319;SDS011;19080;51.750;5.888;2023-03-15T10:01:37;10.35;;;2.25;;
32319;SDS011;19080;51.750;5.888;2023-03-15T10:04:11;8.93;;;2.63;;
32319;SDS011;19080;51.750;5.888;2023-03-15T10:06:45;7.03;;;1.95;;
32319;SDS011;19080;51.750;5.888;2023-03-15T10:20:33;10.55;;;2.78;;
32319;SDS011;19080;51.750;5.888;2023-03-15T10:25:45;9.95;;;2.42;;
32319;SDS011;19080;51.750;5.888;2023-03-15T10:28:22;10.70;;;2.35;;
32319;SDS011;19080;51.750;5.888;2023-03-15T10:30:52;13.70;;;2.78;;
32319;SDS011;19080;51.750;5.888;2023-03-15T10:33:36;6.30;;;2.30;;
32319;SDS011;19080;51.750;5.888;2023-03-15T10:36:12;10.18;;;2.72;;
32319;SDS011;19080;51.750;5.888;2023-03-15T10:41:17;8.57;;;2.80;;
32319;SDS011;19080;51.750;5.888;2023-03-15T10:44:05;10.68;;;1.67;;
32319;SDS011;19080;51.750;5.888;2023-03-15T10:46:36;5.32;;;1.48;;
32319;SDS011;19080;51.750;5.888;2023-03-15T10:49:13;7.43;;;1.83;;
32319;SDS011;19080;51.750;5.888;2023-03-15T10:51:41;9.57;;;1.77;;
32319;SDS011;19080;51.750;5.888;2023-03-15T10:54:11;5.15;;;1.58;;
32319;SDS011;19080;51.750;5.888;2023-03-15T10:59:28;4.88;;;1.42;;
32319;SDS011;19080;51.750;5.888;2023-03-15T11:02:13;6.35;;;1.98;;
32319;SDS011;19080;51.750;5.888;2023-03-15T11:04:49;4.53;;;1.50;;
32319;SDS011;19080;51.750;5.888;2023-03-15T11:07:26;4.72;;;1.55;;
32319;SDS011;19080;51.750;5.888;2023-03-15T11:09:54;6.65;;;1.80;;
32319;SDS011;19080;51.750;5.888;2023-03-15T11:12:26;9.43;;;2.15;;
32319;SDS011;19080;51.750;5.888;2023-03-15T11:14:56;9.13;;;2.10;;
32319;SDS011;19080;51.750;5.888;2023-03-15T11:17:28;8.00;;;2.08;;
32319;SDS011;19080;51.750;5.888;2023-03-15T11:19:59;7.78;;;2.13;;
32319;SDS011;19080;51.750;5.888;2023-03-15T11:22:41;5.18;;;1.73;;
32319;SDS011;19080;51.750;5.888;2023-03-15T11:25:12;5.22;;;2.42;;
32319;SDS011;19080;51.750;5.888;2023-03-15T11:27:40;7.20;;;1.40;;
32319;SDS011;19080;51.750;5.888;2023-03-15T11:30:12;5.78;;;1.30;;
32319;SDS011;19080;51.750;5.888;2023-03-15T11:32:41;7.70;;;1.50;;
32319;SDS011;19080;51.750;5.888;2023-03-15T11:35:11;4.05;;;1.30;;
32319;SDS011;19080;51.750;5.888;2023-03-15T11:37:50;5.35;;;1.50;;
32319;SDS011;19080;51.750;5.888;2023-03-15T11:43:10;6.53;;;1.48;;
32319;SDS011;19080;51.750;5.888;2023-03-15T11:45:44;3.67;;;1.15;;
32319;SDS011;19080;51.750;5.888;2023-03-15T11:48:58;4.20;;;1.65;;
32319;SDS011;19080;51.750;5.888;2023-03-15T11:51:32;8.15;;;1.23;;
32319;SDS011;19080;51.750;5.888;2023-03-15T11:56:45;7.25;;;1.48;;
32319;SDS011;19080;51.750;5.888;2023-03-15T11:59:19;6.03;;;1.60;;
32319;SDS011;19080;51.750;5.888;2023-03-15T12:01:54;5.82;;;1.35;;
32319;SDS011;19080;51.750;5.888;2023-03-15T12:06:51;5.70;;;1.60;;
32319;SDS011;19080;51.750;5.888;2023-03-15T12:11:58;5.05;;;1.35;;
32319;SDS011;19080;51.750;5.888;2023-03-15T12:14:27;7.03;;;1.92;;
32319;SDS011;19080;51.750;5.888;2023-03-15T12:19:58;8.25;;;1.92;;
32319;SDS011;19080;51.750;5.888;2023-03-15T12:22:34;4.72;;;1.60;;
32319;SDS011;19080;51.750;5.888;2023-03-15T12:25:12;6.43;;;2.00;;
32319;SDS011;19080;51.750;5.888;2023-03-15T12:27:48;3.78;;;1.60;;
32319;SDS011;19080;51.750;5.888;2023-03-15T12:30:19;3.53;;;1.35;;
32319;SDS011;19080;51.750;5.888;2023-03-15T12:32:49;4.93;;;1.50;;
32319;SDS011;19080;51.750;5.888;2023-03-15T12:35:20;4.97;;;1.40;;
32319;SDS011;19080;51.750;5.888;2023-03-15T12:37:49;3.97;;;1.63;;
32319;SDS011;19080;51.750;5.888;2023-03-15T12:53:00;4.85;;;1.73;;
32319;SDS011;19080;51.750;5.888;2023-03-15T12:55:33;4.63;;;1.60;;
32319;SDS011;19080;51.750;5.888;2023-03-15T12:58:00;5.88;;;1.80;;
32319;SDS011;19080;51.750;5.888;2023-03-15T13:00:29;5.13;;;1.42;;
32319;SDS011;19080;51.750;5.888;2023-03-15T13:03:06;2.45;;;1.38;;
32319;SDS011;19080;51.750;5.888;2023-03-15T13:11:06;6.40;;;1.65;;
32319;SDS011;19080;51.750;5.888;2023-03-15T13:16:35;4.78;;;1.65;;
32319;SDS011;19080;51.750;5.888;2023-03-15T13:22:00;5.70;;;1.73;;
32319;SDS011;19080;51.750;5.888;2023-03-15T13:30:20;4.68;;;1.73;;
32319;SDS011;19080;51.750;5.888;2023-03-15T13:35:43;5.97;;;1.67;;
32319;SDS011;19080;51.750;5.888;2023-03-15T13:38:22;2.25;;;1.05;;
32319;SDS011;19080;51.750;5.888;2023-03-15T13:40:51;6.53;;;1.42;;
32319;SDS011;19080;51.750;5.888;2023-03-15T13:43:18;4.53;;;1.30;;
32319;SDS011;19080;51.750;5.888;2023-03-15T13:45:45;11.20;;;1.50;;
32319;SDS011;19080;51.750;5.888;2023-03-15T13:48:12;5.50;;;1.75;;
32319;SDS011;19080;51.750;5.888;2023-03-15T13:50:39;4.60;;;1.45;;
32319;SDS011;19080;51.750;5.888;2023-03-15T13:53:06;4.75;;;1.38;;
32319;SDS011;19080;51.750;5.888;2023-03-15T13:55:33;6.85;;;1.48;;
32319;SDS011;19080;51.750;5.888;2023-03-15T13:58:05;4.90;;;1.38;;
32319;SDS011;19080;51.750;5.888;2023-03-15T14:00:33;2.75;;;1.10;;
32319;SDS011;19080;51.750;5.888;2023-03-15T14:03:03;4.85;;;1.48;;
32319;SDS011;19080;51.750;5.888;2023-03-15T14:05:33;3.38;;;1.10;;
32319;SDS011;19080;51.750;5.888;2023-03-15T14:08:14;4.43;;;1.63;;
32319;SDS011;19080;51.750;5.888;2023-03-15T14:11:01;2.80;;;1.02;;
32319;SDS011;19080;51.750;5.888;2023-03-15T14:13:49;4.10;;;1.30;;
32319;SDS011;19080;51.750;5.888;2023-03-15T14:16:39;3.35;;;0.63;;
32319;SDS011;19080;51.750;5.888;2023-03-15T14:19:29;5.28;;;1.15;;
32319;SDS011;19080;51.750;5.888;2023-03-15T14:21:58;3.80;;;1.10;;
32319;SDS011;19080;51.750;5.888;2023-03-15T14:24:36;5.45;;;1.17;;
32319;SDS011;19080;51.750;5.888;2023-03-15T14:27:08;2.65;;;0.90;;
32319;SDS011;19080;51.750;5.888;2023-03-15T14:29:45;2.50;;;0.90;;
32319;SDS011;19080;51.750;5.888;2023-03-15T14:34:55;4.18;;;1.45;;
32319;SDS011;19080;51.750;5.888;2023-03-15T14:37:36;5.20;;;1.27;;
32319;SDS011;19080;51.750;5.888;2023-03-15T14:40:05;2.45;;;1.50;;
32319;SDS011;19080;51.750;5.888;2023-03-15T14:42:49;3.55;;;1.15;;
32319;SDS011;19080;51.750;5.888;2023-03-15T14:45:16;3.05;;;1.13;;
32319;SDS011;19080;51.750;5.888;2023-03-15T14:47:45;3.58;;;1.15;;
32319;SDS011;19080;51.750;5.888;2023-03-15T14:50:23;4.63;;;1.27;;
32319;SDS011;19080;51.750;5.888;2023-03-15T14:52:53;3.40;;;1.20;;
32319;SDS011;19080;51.750;5.888;2023-03-15T14:55:22;2.97;;;1.13;;
32319;SDS011;19080;51.750;5.888;2023-03-15T14:57:52;2.58;;;1.00;;
32319;SDS011;19080;51.750;5.888;2023-03-15T15:00:19;3.08;;;1.48;;
32319;SDS011;19080;51.750;5.888;2023-03-15T15:02:47;3.28;;;1.23;;
32319;SDS011;19080;51.750;5.888;2023-03-15T15:07:51;2.40;;;1.15;;
32319;SDS011;19080;51.750;5.888;2023-03-15T15:10:24;4.05;;;1.30;;
32319;SDS011;19080;51.750;5.888;2023-03-15T15:12:50;2.83;;;1.13;;
32319;SDS011;19080;51.750;5.888;2023-03-15T15:15:31;4.30;;;0.82;;
32319;SDS011;19080;51.750;5.888;2023-03-15T15:18:12;5.70;;;1.80;;
32319;SDS011;19080;51.750;5.888;2023-03-15T15:20:39;3.58;;;1.13;;
32319;SDS011;19080;51.750;5.888;2023-03-15T15:23:11;3.60;;;1.20;;
32319;SDS011;19080;51.750;5.888;2023-03-15T15:25:42;3.65;;;1.33;;
32319;SDS011;19080;51.750;5.888;2023-03-15T15:28:11;3.22;;;1.27;;
32319;SDS011;19080;51.750;5.888;2023-03-15T15:30:46;4.18;;;1.17;;
32319;SDS011;19080;51.750;5.888;2023-03-15T15:33:13;2.90;;;0.82;;
32319;SDS011;19080;51.750;5.888;2023-03-15T15:35:40;7.13;;;1.50;;
32319;SDS011;19080;51.750;5.888;2023-03-15T15:38:08;3.55;;;1.40;;
32319;SDS011;19080;51.750;5.888;2023-03-15T15:40:36;4.05;;;1.15;;
32319;SDS011;19080;51.750;5.888;2023-03-15T15:43:04;5.35;;;1.23;;
32319;SDS011;19080;51.750;5.888;2023-03-15T15:45:31;2.17;;;0.98;;
32319;SDS011;19080;51.750;5.888;2023-03-15T15:48:00;4.78;;;0.93;;
32319;SDS011;19080;51.750;5.888;2023-03-15T15:50:32;3.60;;;0.88;;
32319;SDS011;19080;51.750;5.888;2023-03-15T15:53:00;3.05;;;1.25;;
32319;SDS011;19080;51.750;5.888;2023-03-15T15:55:30;3.15;;;1.20;;
32319;SDS011;19080;51.750;5.888;2023-03-15T15:58:00;4.32;;;1.10;;
32319;SDS011;19080;51.750;5.888;2023-03-15T16:00:28;4.72;;;1.13;;
32319;SDS011;19080;51.750;5.888;2023-03-15T16:02:55;3.35;;;1.13;;
32319;SDS011;19080;51.750;5.888;2023-03-15T16:05:24;3.10;;;1.30;;
32319;SDS011;19080;51.750;5.888;2023-03-15T16:07:52;4.47;;;1.23;;
32319;SDS011;19080;51.750;5.888;2023-03-15T16:10:22;2.45;;;1.00;;
32319;SDS011;19080;51.750;5.888;2023-03-15T16:12:51;3.67;;;1.15;;
32319;SDS011;19080;51.750;5.888;2023-03-15T16:15:20;3.72;;;1.20;;
32319;SDS011;19080;51.750;5.888;2023-03-15T16:17:47;4.00;;;1.20;;
32319;SDS011;19080;51.750;5.888;2023-03-15T16:20:14;3.00;;;1.05;;
32319;SDS011;19080;51.750;5.888;2023-03-15T16:22:49;2.95;;;1.10;;
32319;SDS011;19080;51.750;5.888;2023-03-15T16:25:23;4.10;;;0.88;;
32319;SDS011;19080;51.750;5.888;2023-03-15T16:27:53;4.15;;;1.10;;
32319;SDS011;19080;51.750;5.888;2023-03-15T16:30:22;3.03;;;1.17;;
32319;SDS011;19080;51.750;5.888;2023-03-15T16:32:51;2.33;;;0.98;;
32319;SDS011;19080;51.750;5.888;2023-03-15T16:35:21;4.45;;;1.05;;